AirNav   Air Wisconsin Up To $57,000 Bonus
 
 988 users online  

3FL2 Florida Hospital-Fish Memorial Heliport
Orange City, Florida, USA

GOING TO ORANGE CITY?


FAA INFORMATION EFFECTIVE 25 MARCH 2021

Location

FAA Identifier: 3FL2
Lat/Long: 28-54-53.0000N 081-17-05.0000W
28-54.883333N 081-17.083333W
28.9147222,-81.2847222
(estimated)
Elevation: 45 ft. / 14 m (estimated)
Variation: 04W (1995)
From city: 2 miles N of ORANGE CITY, FL
Time zone: UTC -4 (UTC -5 during Standard Time)
Zip code: 32763

Heliport Operations

Heliport use: Private use. Permission required prior to landing
Activation date: 03/1999
Control tower: no
ARTCC: JACKSONVILLE CENTER
FSS: SAINT PETERSBURG FLIGHT SERVICE STATION
Attendance: UNATNDD
Wind indicator: yes
Segmented circle: no

Heliport Communications

WX ASOS at SFB (9 nm S): 125.975 (407-321-9384)
WX AWOS-3 at DED (9 nm N): 119.575 (386-740-5811)
WX AWOS-3 at EVB (20 nm NE): 124.625 (386-409-4705)
WX ASOS at DAB (20 nm NE): 132.875 (386-257-6444)

Nearby radio navigation aids

VOR radial/distance  VOR name  Freq  Var
ORLr007/22.5ORLANDO VORTAC112.2000E
OMNr201/25.0ORMOND BEACH VORTAC112.6000E

Heliport Services

Runway Information

Helipad H1

Dimensions: 40 x 40 ft. / 12 x 12 m
Surface: concrete
Latitude: 28-54.905333N
Longitude: 081-17.112833W
Elevation: 45.0 ft.
Traffic pattern: leftleft

Heliport Ownership and Management from official FAA records

Ownership: Privately-owned
Owner: SW VOLUSIA HEALTH CARE CORP
1055 SAXON BLVD
ORANGE CITY, FL 32763
Phone (386) 917-5020
Manager: ROBERT DEININGER
1055 SAXON BLVD
ORANGE CITY, FL 32763
Phone (386) 917-5000
ADDNL CTC - WALTER VANDERMARK 386-917-5020; WALTER.VANDERMARK@ADVENTHEALTH.COM

Additional Remarks

FOR CD CTC ORLANDO APCH AT 407-852-7553.

Instrument Procedures

There are no published instrument procedures at 3FL2.

Some nearby airports with instrument procedures:

KSFB - Orlando Sanford International Airport (9 nm S)
KDED - DeLand Municipal Airport-Sidney H Taylor Field (9 nm N)
X50 - Massey Ranch Airpark (19 nm E)
X23 - Umatilla Municipal Airport (19 nm W)
KEVB - New Smyrna Beach Municipal Airport (20 nm NE)
KDAB - Daytona Beach International Airport (20 nm NE)
X04 - Orlando Apopka Airport (20 nm SW)
 
Loc | Ops | Rwys | IFR | FBO | Links
Com | Nav | Svcs | Stats | Notes


 
Area around 3FL2 (Florida Hospital-Fish Memorial Heliport)
 
Road maps at: MapQuest Bing Google
 
Aerial photo
WARNING: Photo may not be current or correct
Aerial photo of 3FL2 (Florida Hospital-Fish Memorial Heliport)
Photo by Don F. Pease
Photo taken 17-Feb-2005
looking east.

Do you have a better or more recent aerial photo of Florida Hospital-Fish Memorial Heliport that you would like to share? If so, please send us your photo.

 
Sectional chart

 
Airport distance calculator
Flying to Florida Hospital-Fish Memorial Heliport? Find the distance to fly.

From to 3FL2

Sunrise and sunset
Times for 11-Apr-2021
 Local
(UTC-4)
 Zulu
(UTC)
Morning civil twilight06:4110:41
Sunrise07:0511:05
Sunset19:4823:48
Evening civil twilight20:1200:12

Current date and time
Zulu (UTC)  12-Apr-2021 00:50:16
Local (UTC-4)  11-Apr-2021 20:50:16
 
METAR
KDED 
9nm N 
120035Z AUTO 17004KT 10SM CLR 17/16 A2975 RMK AO2 P0001 T01660157
KSFB 
10nm S 
120000Z 18005KT 10SM SCT009 17/16 A2973 RMK AO2 T01670156
KEVB 
20nm NE 
112347Z 20005KT 10SM SCT058 17/15 A2972
KDAB 
20nm NE 
112353Z 19005KT 10SM FEW060 SCT085 BKN110 OVC250 18/15 A2973 RMK AO2 SLP066 60011 T01780150 10189 20167 55004
TAF
KSFB 
10nm S 
112008Z 1120/1218 29003KT P6SM -RA VCTS SCT070CB OVC100 FM120000 21010KT P6SM SCT070 OVC100 FM120700 25006KT P6SM SCT007 BKN015 FM121400 34007KT P6SM FEW025
KDAB 
20nm NE 
112012Z 1120/1218 21005KT P6SM -RA VCTS FEW035CB SCT110 OVC140 FM120000 22004KT P6SM SCT020 BKN080 FM120700 25006KT P6SM SCT007 BKN015 FM121400 34010KT P6SM FEW025
NOTAMs
Click for the latest NOTAMs
NOTAMs are issued by the DoD/FAA and will open in a separate window not controlled by AirNav.

 

 
 

Would you like to see your business listed on this page?

 If your business provides an interesting product or service to pilots, flight crews, aircraft, or users of the Florida Hospital-Fish Memorial Heliport, you should consider listing it here.  To start the listing process, click on the button below
 
Add a business
 

Other Pages about Florida Hospital-Fish Memorial Heliport

Update a link
 
Copyright © AirNav, LLC. All rights reserved. Privacy Policy  Contact